createdAt,value
2022-07-25T00:00:47.858Z,262.3897
2022-07-25T00:05:49.829Z,164.85285
2022-07-25T00:10:51.554Z,122.36565
2022-07-25T00:15:53.388Z,178.89665
2022-07-25T00:20:55.026Z,173.3265
2022-07-25T00:25:56.597Z,196.85145
2022-07-25T00:30:58.274Z,227.0725
2022-07-25T00:35:59.988Z,160.8233
2022-07-25T00:41:01.615Z,146.18685
2022-07-25T00:46:03.278Z,61.8643
2022-07-25T00:51:04.952Z,208.93995
2022-07-25T00:56:06.607Z,201.05875
2022-07-25T01:01:08.299Z,178.5411
2022-07-25T01:06:10.132Z,150.4532
2022-07-25T01:11:11.772Z,97.8331
2022-07-25T01:16:13.510Z,71.58235
2022-07-25T01:21:15.199Z,62.69385
2022-07-25T01:26:16.831Z,68.2047
2022-07-25T01:31:18.534Z,63.70115
2022-07-25T01:36:20.189Z,55.64225
2022-07-25T01:41:22.723Z,79.1078
2022-07-25T01:46:24.527Z,97.8328
2022-07-25T01:51:26.387Z,78.1596
2022-07-25T01:56:28.644Z,50.72385
2022-07-25T02:01:33.874Z,33.89495
2022-07-25T02:06:35.504Z,27.91
2022-07-25T02:11:37.095Z,26.48785
2022-07-25T02:16:38.778Z,24.4139
2022-07-25T02:21:40.497Z,22.28065
2022-07-25T02:26:42.097Z,19.79185
2022-07-25T02:31:43.769Z,18.0734
2022-07-25T02:36:45.651Z,16.592
2022-07-25T02:41:47.327Z,13.98465
2022-07-25T02:46:49.005Z,13.2143
2022-07-25T02:51:50.671Z,12.7995
2022-07-25T02:56:52.332Z,11.5551
2022-07-25T03:01:54.203Z,9.77735
2022-07-25T03:06:56.937Z,9.4811
2022-07-25T03:11:58.580Z,8.71075
2022-07-25T03:17:00.471Z,8.29595
2022-07-25T03:22:02.457Z,7.1108
2022-07-25T03:27:04.093Z,5.2146
2022-07-25T03:32:05.855Z,2.6073
2022-07-25T03:37:07.577Z,1.2444
2022-07-25T03:42:09.220Z,1.3463
2022-07-25T03:47:10.902Z,0.4148
2022-07-25T03:52:22.709Z,1.16185
2022-07-25T03:57:24.379Z,0
2022-07-25T04:02:26.051Z,0
2022-07-25T04:07:27.733Z,0
2022-07-25T04:12:29.339Z,0
2022-07-25T04:17:30.927Z,0
2022-07-25T04:22:32.525Z,0
2022-07-25T04:27:34.126Z,0
2022-07-25T04:32:35.841Z,0
2022-07-25T04:37:37.429Z,0
2022-07-25T04:42:39.018Z,0
2022-07-25T04:47:40.654Z,0
2022-07-25T04:52:42.253Z,0
2022-07-25T04:57:43.892Z,0
2022-07-25T05:02:45.593Z,0
2022-07-25T05:07:47.258Z,0
2022-07-25T05:12:48.865Z,0
2022-07-25T05:17:50.488Z,0
2022-07-25T05:22:52.126Z,0
2022-07-25T05:27:53.828Z,0
2022-07-25T05:32:55.460Z,0
2022-07-25T05:37:57.197Z,0
2022-07-25T05:43:02.968Z,0
2022-07-25T05:48:05.414Z,0
2022-07-25T05:53:07.043Z,0
2022-07-25T05:58:08.652Z,0
2022-07-25T06:03:10.317Z,0
2022-07-25T06:08:11.984Z,0
2022-07-25T06:13:13.602Z,0
2022-07-25T06:18:15.926Z,0
2022-07-25T06:23:17.545Z,0
2022-07-25T06:28:19.178Z,0
2022-07-25T06:33:20.821Z,0
2022-07-25T06:38:22.419Z,0
2022-07-25T06:43:24.010Z,0
2022-07-25T06:48:25.858Z,0
2022-07-25T06:53:27.503Z,0
2022-07-25T06:58:29.077Z,0
2022-07-25T07:03:30.758Z,0
2022-07-25T07:08:32.645Z,0
2022-07-25T07:13:34.494Z,0
2022-07-25T07:18:36.191Z,0
2022-07-25T07:23:37.819Z,0
2022-07-25T07:28:41.696Z,0
2022-07-25T07:33:43.321Z,0
2022-07-25T07:38:44.941Z,0
2022-07-25T07:43:46.567Z,0
2022-07-25T07:48:48.239Z,0
2022-07-25T07:53:49.926Z,0
2022-07-25T07:58:51.526Z,0
2022-07-25T08:03:53.122Z,0
2022-07-25T08:08:54.710Z,0
2022-07-25T08:13:56.327Z,0
2022-07-25T08:18:58.042Z,0
2022-07-25T08:23:59.678Z,0
2022-07-25T08:29:18.185Z,0
2022-07-25T08:34:21.306Z,0
2022-07-25T08:39:22.895Z,0
2022-07-25T08:44:24.514Z,0
2022-07-25T08:49:26.167Z,0
2022-07-25T08:54:27.798Z,0
2022-07-25T08:59:29.443Z,0
2022-07-25T09:04:31.051Z,0
2022-07-25T09:09:32.664Z,0
2022-07-25T09:14:34.236Z,0
2022-07-25T09:19:35.841Z,0
2022-07-25T09:24:37.459Z,0
2022-07-25T09:29:39.031Z,0
2022-07-25T09:34:40.665Z,0
2022-07-25T09:39:46.125Z,0
2022-07-25T09:44:48.529Z,0
2022-07-25T09:49:50.172Z,0
2022-07-25T09:54:51.855Z,0
2022-07-25T09:59:53.465Z,0
2022-07-25T10:04:55.183Z,0
2022-07-25T10:09:56.853Z,0
2022-07-25T10:14:58.460Z,0
2022-07-25T10:20:00.096Z,0
2022-07-25T10:25:01.826Z,0
2022-07-25T10:30:03.513Z,0
2022-07-25T10:35:05.125Z,0
2022-07-25T10:40:06.735Z,0
2022-07-25T10:45:08.363Z,0
2022-07-25T10:50:29.708Z,0
2022-07-25T10:55:42.032Z,0
2022-07-25T11:00:43.661Z,0
2022-07-25T11:05:45.257Z,0
2022-07-25T11:10:47.052Z,0
2022-07-25T11:15:48.642Z,0
2022-07-25T11:20:50.283Z,0
2022-07-25T11:25:51.882Z,0
2022-07-25T11:30:53.481Z,0
2022-07-25T11:35:55.102Z,0
2022-07-25T11:40:56.707Z,0
2022-07-25T11:45:58.378Z,0
2022-07-25T11:51:00.069Z,0.88715
2022-07-25T11:56:14.414Z,1.16185
2022-07-25T12:01:27.420Z,0.4148
2022-07-25T12:06:29.032Z,0.5333
2022-07-25T12:11:30.679Z,0.88885
2022-07-25T12:16:32.348Z,1.2444
2022-07-25T12:21:34.243Z,1.6592
2022-07-25T12:26:35.875Z,2.13325
2022-07-25T12:31:37.516Z,2.9036
2022-07-25T12:36:39.081Z,3.6147
2022-07-25T12:41:40.695Z,4.2665
2022-07-25T12:46:47.375Z,6.1035
2022-07-25T12:51:54.714Z,9.9223
2022-07-25T12:56:59.661Z,8.4145
2022-07-25T13:02:01.369Z,10.01445
2022-07-25T13:07:03.061Z,14.4587
2022-07-25T13:12:04.706Z,14.39945
2022-07-25T13:17:06.377Z,29.15425
2022-07-25T13:22:08.025Z,32.23565
2022-07-25T13:27:09.715Z,26.96185
2022-07-25T13:32:11.359Z,50.1904
2022-07-25T13:37:13.028Z,35.5541
2022-07-25T13:42:14.712Z,45.21295
2022-07-25T13:47:16.312Z,40.70945
2022-07-25T13:52:17.936Z,96.17375
2022-07-25T13:57:19.737Z,60.61985
2022-07-25T14:02:21.434Z,69.09345
2022-07-25T14:07:23.069Z,73.6561
2022-07-25T14:12:24.653Z,69.5674
2022-07-25T14:17:30.167Z,40.82805
2022-07-25T14:22:32.236Z,25.52455
2022-07-25T14:27:33.811Z,79.34485
2022-07-25T14:32:35.437Z,103.04775
2022-07-25T14:37:37.102Z,91.6112
2022-07-25T14:42:38.748Z,90.9593
2022-07-25T14:47:40.451Z,92.9146
2022-07-25T14:52:42.128Z,107.07715
2022-07-25T14:57:43.773Z,135.9352
2022-07-25T15:02:45.452Z,157.08995
2022-07-25T15:07:47.026Z,152.52715
2022-07-25T15:12:54.345Z,146.5422
2022-07-25T15:18:04.149Z,162.3047
2022-07-25T15:23:05.729Z,187.60755
2022-07-25T15:28:07.327Z,210.8363
2022-07-25T15:33:08.996Z,245.5016
2022-07-25T15:38:10.674Z,278.15215
2022-07-25T15:43:12.270Z,295.9292
2022-07-25T15:48:13.885Z,316.72845
2022-07-25T15:53:15.638Z,327.217
2022-07-25T15:58:17.237Z,324.01715
2022-07-25T16:03:19.012Z,307.72145
2022-07-25T16:08:20.632Z,298.7144
2022-07-25T16:13:22.334Z,303.98855
2022-07-25T16:18:23.937Z,299.78145
2022-07-25T16:23:25.550Z,300.0187
2022-07-25T16:28:27.356Z,280.70085
2022-07-25T16:33:29.644Z,273.53055
2022-07-25T16:38:31.281Z,288.2262
2022-07-25T16:43:32.919Z,298.71475
2022-07-25T16:48:34.833Z,299.12955
2022-07-25T16:53:36.497Z,292.61125
2022-07-25T16:58:38.323Z,285.14475
2022-07-25T17:03:40.389Z,287.57425
2022-07-25T17:08:41.949Z,276.25595
2022-07-25T17:13:43.565Z,264.4044
2022-07-25T17:18:45.375Z,262.2119
2022-07-25T17:23:46.957Z,266.47845
2022-07-25T17:28:48.528Z,270.44875
2022-07-25T17:33:50.167Z,261.0268
2022-07-25T17:38:51.861Z,272.64125
2022-07-25T17:43:53.517Z,260.49355
2022-07-25T17:48:55.270Z,242.4201
2022-07-25T17:53:57.060Z,222.86515
2022-07-25T17:58:58.634Z,213.68015
2022-07-25T18:04:00.432Z,220.07985
2022-07-25T18:09:02.110Z,233.7683
2022-07-25T18:14:04.419Z,250.12345
2022-07-25T18:19:06.205Z,260.90835
2022-07-25T18:24:08.153Z,263.2195
2022-07-25T18:29:09.997Z,269.02675
2022-07-25T18:34:11.634Z,271.9897
2022-07-25T18:39:13.216Z,258.8939
2022-07-25T18:44:14.814Z,247.9905
2022-07-25T18:49:16.851Z,223.3393
2022-07-25T18:54:18.496Z,204.13985
2022-07-25T18:59:20.290Z,193.7104
2022-07-25T19:04:21.912Z,187.3105
2022-07-25T19:09:23.563Z,183.518
2022-07-25T19:14:25.212Z,181.97725
2022-07-25T19:19:26.950Z,176.88115
2022-07-25T19:24:28.619Z,172.49615
2022-07-25T19:29:30.225Z,166.9853
2022-07-25T19:34:31.845Z,163.9633
2022-07-25T19:39:33.469Z,158.808
2022-07-25T19:44:35.129Z,157.44515
2022-07-25T19:49:36.721Z,156.023
2022-07-25T19:54:38.479Z,159.8747
2022-07-25T19:59:40.074Z,169.2966
2022-07-25T20:04:41.812Z,177.35555
2022-07-25T20:09:43.425Z,187.0737
2022-07-25T20:14:45.024Z,196.79185
2022-07-25T20:19:46.824Z,210.95425
2022-07-25T20:24:48.748Z,222.86485
2022-07-25T20:29:50.566Z,235.24935
2022-07-25T20:34:52.149Z,255.39645
2022-07-25T20:39:53.735Z,265.70705
2022-07-25T20:44:55.707Z,283.30625
2022-07-25T20:49:57.354Z,277.26195
2022-07-25T20:54:59.034Z,285.91345
2022-07-25T21:00:00.631Z,293.02425
2022-07-25T21:05:02.501Z,296.28345
2022-07-25T21:10:04.123Z,299.8981
2022-07-25T21:15:05.811Z,305.58685
2022-07-25T21:20:07.412Z,311.2756
2022-07-25T21:25:09.017Z,319.3346
2022-07-25T21:30:10.628Z,320.9346
2022-07-25T21:35:12.267Z,323.4827
2022-07-25T21:40:13.867Z,325.20125
2022-07-25T21:45:15.510Z,324.0162
2022-07-25T21:50:23.204Z,323.30515
2022-07-25T21:55:26.722Z,322.59415
2022-07-25T22:00:29.681Z,321.3498
2022-07-25T22:05:33.346Z,321.5869
2022-07-25T22:10:34.962Z,320.6981
2022-07-25T22:15:36.810Z,324.6683
2022-07-25T22:20:38.402Z,320.34265
2022-07-25T22:25:40.018Z,326.0906
2022-07-25T22:30:41.590Z,320.876
2022-07-25T22:35:43.281Z,313.706
2022-07-25T22:40:45.586Z,314.5356
2022-07-25T22:45:47.299Z,301.67695
2022-07-25T22:50:49.118Z,298.1808
2022-07-25T22:55:50.745Z,294.32915
2022-07-25T23:00:52.429Z,291.89965
2022-07-25T23:05:54.114Z,290.65525
2022-07-25T23:10:58.161Z,285.38145
2022-07-25T23:15:59.826Z,284.67045
2022-07-25T23:21:01.468Z,285.0852
2022-07-25T23:26:03.106Z,262.0936
2022-07-25T23:31:04.841Z,283.8408
2022-07-25T23:36:06.572Z,81.18225
2022-07-25T23:41:08.178Z,183.57815
2022-07-25T23:46:09.806Z,257.88625
2022-07-25T23:51:13.187Z,265.4712
2022-07-25T23:56:20.170Z,264.3453
